Chaska, MN (55318)

11:36 PM CDT on May 27, 2015 (GMT -0500)
Hammers Haven | | Change Station
CLOSE
Current Station
Personal Weather Station
Location: Chaska, MN
Elevation: 935 ft
Nearby Weather Stations

Elev 935 ft 44.82 °N, 93.61 °W | Updated 4 minutes ago

Clear
Clear
63.2 °F
Feels Like 63.2 °F
N
0.0
Wind Variable Wind from West
Gusts 0.0 mph

Today
High -- | Low -- °F
--% Chance of Precip.
Yesterday
High -- | Low -- °F
Precip. -- in
5:35 AM 8:48 PM
Waxing Gibbous, 73% visible
Pressure 30.01 in
Visibility 10.0 miles
Clouds Clear
Dew Point 58 °F
Humidity 82%
Rainfall 0.00 in
Snow Depth Not available.
UV 0 out of 12
Pollen 7.90 out of 12
Air Quality Not available.
Flu Activity Sporadic
METAR KFCM 280353Z AUTO 00000KT 10SM CLR 20/13 A3002 RMK AO2 SLP163 T02000133

More Conditions Fewer Conditions

Pressure 30.01 in
Visibility 10.0 miles
Clouds Clear
Dew Point 58 °F
Humidity 82%
Rainfall 0.00 in
Snow Depth Not available.
UV 0 out of 12
Pollen 7.90 out of 12
Air Quality Not available.
Flu Activity Sporadic
METAR KFCM 280353Z AUTO 00000KT 10SM CLR 20/13 A3002 RMK AO2 SLP163 T02000133

More Conditions Fewer Conditions

10-Day Weather Forecast

Almanac

Astronomy

May. 27, 2015 Rise Set
Actual Time
Civil Twilight
Nautical Twilight
Astronomical Twilight
Moon
Length of Visible Light
Length of Day
Tomorrow will be .
, % of the Moon is Illuminated

Today's Extremes

State Highs State Lows

Community

WunderPhotos

Upload Photos

1,824,919 photos uploaded!

WunderBlogs® & News

Nearby

Air Quality

  Air Quality AQ Index Pollutant
Not available.

Snow Depth

Station Depth Elevation

Earthquake Activity

City Distance Mag. Time & Date
Minimum magnitude displayed is 2.5.

Coastal Water Temperatures

Place Temperature

Stations

Nearby Weather Stations

Station Location Temp. Windchill Dew Point Humidity Wind Precip. Elev Updated Type